createdAt,value
2022-10-09T00:01:12.201Z,11.70
2022-10-09T00:04:12.497Z,11.60
2022-10-09T00:07:10.911Z,11.60
2022-10-09T00:10:08.927Z,11.80
2022-10-09T00:13:07.361Z,11.80
2022-10-09T00:16:07.353Z,11.80
2022-10-09T00:19:06.322Z,11.70
2022-10-09T00:22:04.708Z,11.70
2022-10-09T00:25:03.781Z,11.60
2022-10-09T00:28:02.700Z,11.60
2022-10-09T00:31:05.946Z,11.70
2022-10-09T00:34:04.143Z,11.60
2022-10-09T00:37:02.721Z,11.70
2022-10-09T00:40:01.188Z,11.60
2022-10-09T00:43:00.210Z,11.60
2022-10-09T00:45:58.490Z,11.60
2022-10-09T00:49:10.710Z,11.60
2022-10-09T00:52:09.040Z,11.40
2022-10-09T00:55:09.632Z,11.30
2022-10-09T00:58:07.986Z,11.20
2022-10-09T01:01:06.562Z,11.10
2022-10-09T01:04:04.813Z,11.10
2022-10-09T01:07:13.402Z,11.10
2022-10-09T01:10:38.161Z,11.10
2022-10-09T01:13:47.741Z,11.00
2022-10-09T01:17:08.470Z,10.90
2022-10-09T01:20:27.069Z,10.80
2022-10-09T01:23:53.514Z,10.70
2022-10-09T01:26:58.582Z,10.70
2022-10-09T01:30:07.800Z,10.70
2022-10-09T01:33:07.443Z,10.70
2022-10-09T01:36:07.722Z,10.70
2022-10-09T01:39:09.093Z,10.70
2022-10-09T01:42:07.825Z,10.80
2022-10-09T01:45:06.771Z,10.80
2022-10-09T01:48:05.532Z,10.90
2022-10-09T01:51:05.419Z,10.90
2022-10-09T01:54:07.535Z,11.00
2022-10-09T01:57:09.091Z,11.00
2022-10-09T02:00:11.295Z,11.10
2022-10-09T02:03:14.012Z,11.30
2022-10-09T02:06:14.762Z,11.30
2022-10-09T02:09:16.684Z,11.40
2022-10-09T02:12:17.423Z,11.50
2022-10-09T02:15:16.612Z,11.70
2022-10-09T02:18:18.798Z,11.80
2022-10-09T02:21:23.804Z,11.90
2022-10-09T02:24:23.866Z,11.90
2022-10-09T02:27:23.566Z,12.10
2022-10-09T02:30:22.334Z,12.10
2022-10-09T02:33:30.849Z,12.20
2022-10-09T02:36:30.264Z,12.30
2022-10-09T02:39:28.776Z,12.40
2022-10-09T02:42:26.928Z,12.50
2022-10-09T02:45:25.826Z,12.60
2022-10-09T02:48:24.531Z,12.70
2022-10-09T02:51:23.294Z,12.90
2022-10-09T02:54:21.686Z,13.00
2022-10-09T02:57:20.095Z,13.10
2022-10-09T03:00:18.035Z,13.30
2022-10-09T03:03:16.708Z,13.30
2022-10-09T03:06:18.747Z,13.50
2022-10-09T03:09:17.264Z,13.60
2022-10-09T03:12:21.539Z,13.80
2022-10-09T03:15:19.952Z,14.00
2022-10-09T03:18:17.929Z,14.20
2022-10-09T03:21:19.148Z,14.40
2022-10-09T03:24:17.330Z,14.60
2022-10-09T03:27:15.866Z,14.70
2022-10-09T03:30:14.504Z,14.90
2022-10-09T03:33:12.916Z,15.80
2022-10-09T03:36:11.250Z,15.20
2022-10-09T03:39:09.916Z,15.30
2022-10-09T03:42:08.011Z,15.40
2022-10-09T03:45:06.860Z,15.50
2022-10-09T03:48:05.169Z,15.50
2022-10-09T03:51:03.943Z,15.60
2022-10-09T03:54:02.638Z,15.70
2022-10-09T03:57:01.034Z,15.80
2022-10-09T03:59:59.366Z,15.80
2022-10-09T04:02:57.895Z,15.90
2022-10-09T04:05:56.058Z,16.00
2022-10-09T04:08:54.539Z,16.00
2022-10-09T04:11:52.936Z,16.10
2022-10-09T04:14:51.377Z,16.20
2022-10-09T04:17:49.489Z,16.20
2022-10-09T04:20:51.932Z,16.30
2022-10-09T04:23:51.144Z,16.40
2022-10-09T04:26:49.584Z,16.40
2022-10-09T04:29:48.023Z,16.50
2022-10-09T04:32:48.724Z,16.60
2022-10-09T04:35:50.501Z,16.60
2022-10-09T04:38:48.938Z,16.70
2022-10-09T04:41:47.382Z,16.80
2022-10-09T04:44:45.852Z,16.90
2022-10-09T04:47:44.076Z,17.00
2022-10-09T04:50:42.519Z,17.00
2022-10-09T04:53:41.599Z,17.10
2022-10-09T04:56:40.319Z,17.10
2022-10-09T04:59:38.440Z,17.10
2022-10-09T05:02:36.944Z,17.30
2022-10-09T05:05:35.233Z,17.30
2022-10-09T05:08:34.191Z,17.30
2022-10-09T05:11:32.297Z,17.30
2022-10-09T05:14:30.737Z,17.40
2022-10-09T05:17:28.924Z,17.40
2022-10-09T05:20:27.591Z,17.40
2022-10-09T05:23:26.043Z,17.40
2022-10-09T05:26:25.860Z,17.40
2022-10-09T05:29:23.994Z,17.40
2022-10-09T05:32:22.343Z,17.40
2022-10-09T05:35:20.479Z,17.50
2022-10-09T05:38:19.744Z,17.60
2022-10-09T05:41:20.137Z,17.60
2022-10-09T05:44:18.778Z,17.70
2022-10-09T05:47:20.185Z,17.60
2022-10-09T05:50:18.649Z,17.60
2022-10-09T05:53:16.754Z,17.60
2022-10-09T05:56:22.431Z,17.60
2022-10-09T05:59:20.714Z,17.60
2022-10-09T06:02:19.401Z,17.60
2022-10-09T06:05:17.614Z,17.60
2022-10-09T06:08:16.139Z,17.70
2022-10-09T06:11:17.668Z,17.70
2022-10-09T06:14:17.177Z,17.70
2022-10-09T06:17:15.352Z,17.70
2022-10-09T06:20:13.791Z,17.70
2022-10-09T06:23:11.912Z,17.70
2022-10-09T06:26:13.260Z,17.70
2022-10-09T06:29:11.371Z,17.70
2022-10-09T06:32:10.102Z,17.70
2022-10-09T06:35:08.888Z,17.70
2022-10-09T06:38:07.587Z,17.60
2022-10-09T06:41:09.199Z,17.60
2022-10-09T06:44:16.385Z,17.70
2022-10-09T06:47:15.059Z,17.70
2022-10-09T06:50:13.465Z,17.70
2022-10-09T06:53:11.590Z,17.70
2022-10-09T06:56:11.050Z,17.70
2022-10-09T06:59:10.734Z,17.80
2022-10-09T07:02:09.903Z,17.80
2022-10-09T07:05:08.462Z,17.80
2022-10-09T07:08:07.023Z,17.80
2022-10-09T07:11:15.506Z,17.80
2022-10-09T07:14:16.224Z,17.80
2022-10-09T07:17:14.358Z,17.80
2022-10-09T07:20:12.971Z,17.80
2022-10-09T07:23:11.039Z,17.80
2022-10-09T07:26:13.173Z,17.80
2022-10-09T07:29:13.778Z,17.80
2022-10-09T07:32:12.408Z,17.80
2022-10-09T07:35:10.649Z,17.90
2022-10-09T07:38:09.096Z,17.90
2022-10-09T07:41:10.434Z,17.90
2022-10-09T07:44:08.970Z,17.90
2022-10-09T07:47:07.497Z,17.90
2022-10-09T07:50:06.539Z,17.90
2022-10-09T07:53:05.047Z,17.90
2022-10-09T07:56:04.841Z,18.00
2022-10-09T07:59:06.730Z,18.00
2022-10-09T08:02:05.352Z,18.00
2022-10-09T08:05:03.842Z,18.00
2022-10-09T08:08:02.423Z,18.00
2022-10-09T08:11:01.199Z,18.20
2022-10-09T08:13:59.911Z,18.00
2022-10-09T08:16:58.060Z,18.00
2022-10-09T08:19:58.414Z,18.10
2022-10-09T08:22:56.530Z,18.00
2022-10-09T08:25:55.330Z,18.10
2022-10-09T08:28:55.531Z,18.10
2022-10-09T08:31:54.786Z,18.00
2022-10-09T08:34:53.511Z,18.10
2022-10-09T08:37:52.109Z,18.10
2022-10-09T08:40:58.449Z,18.10
2022-10-09T08:44:03.785Z,18.20
2022-10-09T08:47:09.811Z,18.30
2022-10-09T08:50:19.262Z,18.30
2022-10-09T08:53:34.815Z,18.30
2022-10-09T08:56:34.646Z,18.30
2022-10-09T08:59:33.162Z,18.40
2022-10-09T09:02:54.513Z,18.40
2022-10-09T09:06:14.825Z,18.40
2022-10-09T09:09:53.234Z,18.40
2022-10-09T09:12:57.728Z,18.50
2022-10-09T09:16:12.315Z,18.40
2022-10-09T09:19:43.559Z,18.40
2022-10-09T09:22:48.083Z,18.30
2022-10-09T09:25:46.727Z,18.30
2022-10-09T09:28:46.269Z,18.20
2022-10-09T09:31:46.724Z,18.20
2022-10-09T09:34:45.750Z,18.10
2022-10-09T09:37:44.073Z,18.10
2022-10-09T09:40:47.195Z,18.10
2022-10-09T09:43:45.812Z,18.10
2022-10-09T09:46:46.953Z,18.10
2022-10-09T09:50:01.923Z,18.10
2022-10-09T09:53:06.444Z,18.20
2022-10-09T09:56:05.286Z,18.20
2022-10-09T09:59:04.167Z,18.10
2022-10-09T10:02:23.023Z,18.10
2022-10-09T10:05:26.571Z,18.10
2022-10-09T10:08:29.253Z,18.10
2022-10-09T10:11:28.551Z,18.20
2022-10-09T10:14:28.406Z,18.10
2022-10-09T10:17:30.800Z,18.10
2022-10-09T10:20:30.846Z,18.10
2022-10-09T10:23:52.122Z,18.00
2022-10-09T10:27:00.704Z,18.00
2022-10-09T10:30:02.971Z,17.90
2022-10-09T10:33:14.896Z,17.80
2022-10-09T10:36:13.400Z,17.70
2022-10-09T10:39:25.597Z,17.70
2022-10-09T10:42:42.467Z,17.50
2022-10-09T10:46:03.584Z,17.50
2022-10-09T10:49:02.314Z,17.40
2022-10-09T10:52:29.761Z,17.40
2022-10-09T10:55:40.821Z,17.40
2022-10-09T10:58:54.655Z,17.30
2022-10-09T11:02:14.717Z,17.20
2022-10-09T11:05:31.669Z,17.20
2022-10-09T11:08:51.662Z,17.30
2022-10-09T11:12:00.311Z,17.20
2022-10-09T11:15:17.358Z,17.20
2022-10-09T11:18:36.827Z,17.10
2022-10-09T11:21:55.110Z,17.10
2022-10-09T11:25:08.690Z,17.10
2022-10-09T11:28:14.024Z,17.10
2022-10-09T11:31:17.199Z,17.00
2022-10-09T11:34:22.155Z,17.00
2022-10-09T11:37:25.983Z,16.90
2022-10-09T11:40:31.169Z,16.80
